Dolenn — FAA8887 — position and weather

sailwx.info

Track history (hours):
 
Tides and Currents Weather Stations Pressure Air Temp Water Temp Dewpoint Dewpoint Depression Visibility Wind Speed Wind Dir Waves Ship Positions

Dolenn

Last reported at 2017-Oct-19 15:57 UTC. Time now 2017-Nov-24 18:44 UTC.
Position N 48°24' W 004°26'.
Warning: this ship's position is 36 days out of date.

Length 11 m.

Type: Sailing vessel. MMSI: 227167050.

Date/timePositionNaut miles runAvg speedWind from/ knotsBaromVisibWave heightAir tempDewpointWater temp
2017-Oct-19 15:57N 48°24' W 004°26'0 0.0
2017-Oct-19 15:30N 48°24' W 004°26'0 0.0
2017-Oct-19 14:57N 48°24' W 004°26'0 0.0
2017-Oct-19 14:30N 48°24' W 004°26'0 0.0
2017-Oct-19 14:00N 48°24' W 004°26'0 0.0
2017-Oct-19 13:30N 48°24' W 004°26'0 0.0
2017-Oct-19 13:00N 48°24' W 004°26'0 0.0
2017-Oct-19 12:30N 48°24' W 004°26'  
2017-Oct-15 11:52N 48°24' W 004°26'0 0.1
2017-Oct-15 11:30N 48°24' W 004°26'0 0.6
2017-Oct-15 11:00N 48°23' W 004°26'2 4.3
2017-Oct-15 10:30N 48°21' W 004°27'2 4.4
2017-Oct-15 10:00N 48°19' W 004°27'3 6.5
2017-Oct-15 09:30N 48°18' W 004°22'2 4.7
2017-Oct-15 09:00N 48°19' W 004°19'1 2.5
2017-Oct-15 08:30N 48°18' W 004°21'3 5.7
2017-Oct-15 08:00N 48°18' W 004°25'3 5.9
2017-Oct-15 07:30N 48°18' W 004°29'1 0.0
2017-Oct-14 17:42N 48°17' W 004°30'0 2.1
2017-Oct-14 17:30N 48°18' W 004°30'2 3.9
2017-Oct-14 17:00N 48°19' W 004°29'2 3.4
2017-Oct-14 16:30N 48°20' W 004°31'2 3.6
2017-Oct-14 16:00N 48°20' W 004°34'2 4.6
2017-Oct-14 15:30N 48°19' W 004°36'3 5.0
2017-Oct-14 15:00N 48°17' W 004°38'2 4.8
2017-Oct-14 14:30N 48°14' W 004°37'3 5.1
2017-Oct-14 14:00N 48°12' W 004°35'2 4.5
2017-Oct-14 13:30N 48°10' W 004°35'2 4.8
2017-Oct-14 13:00N 48°11' W 004°31'3 5.7
2017-Oct-14 12:30N 48°14' W 004°30'0 0.3
2017-Oct-14 12:00N 48°14' W 004°30'0 0.0
2017-Oct-14 11:30N 48°14' W 004°30'1 2.2
2017-Oct-14 11:00N 48°13' W 004°30'3 6.0
2017-Oct-14 10:30N 48°10' W 004°32'1 2.2
2017-Oct-14 09:59N 48°09' W 004°33'1 2.8
2017-Oct-14 09:30N 48°09' W 004°35'3 5.5
2017-Oct-14 09:00N 48°12' W 004°36'2 4.3
2017-Oct-14 08:30N 48°14' W 004°36'1 1.8
2017-Oct-14 08:00N 48°15' W 004°38'2 3.0
2017-Oct-14 07:30N 48°16' W 004°38'1 2.7
2017-Oct-14 07:00N 48°17' W 004°37'1 2.9
2017-Oct-14 06:30N 48°17' W 004°35'0 0.0
2017-Oct-14 06:00N 48°17' W 004°35'0 0.0
2017-Oct-14 05:30N 48°17' W 004°35'0 0.0
2017-Oct-13 15:06N 48°17' W 004°35'0 0.1
2017-Oct-13 15:00N 48°17' W 004°35'1 2.7
2017-Oct-13 14:30N 48°17' W 004°37'3 5.8
2017-Oct-13 14:00N 48°18' W 004°41'3 5.7
2017-Oct-13 13:30N 48°19' W 004°45'1 1.7
2017-Oct-13 13:00N 48°19' W 004°44'3 5.7
2017-Oct-13 12:30N 48°19' W 004°40'  
Track history (hours):
 
Tides and Currents Weather Stations Pressure Air Temp Water Temp Dewpoint Dewpoint Depression Visibility Wind Speed Wind Dir Waves Ship Positions

Dolenn

Last reported at 2017-Oct-19 15:57 UTC. Time now 2017-Nov-24 18:44 UTC.
Position N 48°24' W 004°26'.
Warning: this ship's position is 36 days out of date.

Length 11 m.

Type: Sailing vessel. MMSI: 227167050.

Date/timePositionNaut miles runAvg speedWind from/ knotsBaromVisibWave heightAir tempDewpointWater temp
2017-Oct-19 15:57N 48°24' W 004°26'0 0.0
2017-Oct-19 15:30N 48°24' W 004°26'0 0.0
2017-Oct-19 14:57N 48°24' W 004°26'0 0.0
2017-Oct-19 14:30N 48°24' W 004°26'0 0.0
2017-Oct-19 14:00N 48°24' W 004°26'0 0.0
2017-Oct-19 13:30N 48°24' W 004°26'0 0.0
2017-Oct-19 13:00N 48°24' W 004°26'0 0.0
2017-Oct-19 12:30N 48°24' W 004°26'  
2017-Oct-15 11:52N 48°24' W 004°26'0 0.1
2017-Oct-15 11:30N 48°24' W 004°26'0 0.6
2017-Oct-15 11:00N 48°23' W 004°26'2 4.3
2017-Oct-15 10:30N 48°21' W 004°27'2 4.4
2017-Oct-15 10:00N 48°19' W 004°27'3 6.5
2017-Oct-15 09:30N 48°18' W 004°22'2 4.7
2017-Oct-15 09:00N 48°19' W 004°19'1 2.5
2017-Oct-15 08:30N 48°18' W 004°21'3 5.7
2017-Oct-15 08:00N 48°18' W 004°25'3 5.9
2017-Oct-15 07:30N 48°18' W 004°29'1 0.0
2017-Oct-14 17:42N 48°17' W 004°30'0 2.1
2017-Oct-14 17:30N 48°18' W 004°30'2 3.9
2017-Oct-14 17:00N 48°19' W 004°29'2 3.4
2017-Oct-14 16:30N 48°20' W 004°31'2 3.6
2017-Oct-14 16:00N 48°20' W 004°34'2 4.6
2017-Oct-14 15:30N 48°19' W 004°36'3 5.0
2017-Oct-14 15:00N 48°17' W 004°38'2 4.8
2017-Oct-14 14:30N 48°14' W 004°37'3 5.1
2017-Oct-14 14:00N 48°12' W 004°35'2 4.5
2017-Oct-14 13:30N 48°10' W 004°35'2 4.8
2017-Oct-14 13:00N 48°11' W 004°31'3 5.7
2017-Oct-14 12:30N 48°14' W 004°30'0 0.3
2017-Oct-14 12:00N 48°14' W 004°30'0 0.0
2017-Oct-14 11:30N 48°14' W 004°30'1 2.2
2017-Oct-14 11:00N 48°13' W 004°30'3 6.0
2017-Oct-14 10:30N 48°10' W 004°32'1 2.2
2017-Oct-14 09:59N 48°09' W 004°33'1 2.8
2017-Oct-14 09:30N 48°09' W 004°35'3 5.5
2017-Oct-14 09:00N 48°12' W 004°36'2 4.3
2017-Oct-14 08:30N 48°14' W 004°36'1 1.8
2017-Oct-14 08:00N 48°15' W 004°38'2 3.0
2017-Oct-14 07:30N 48°16' W 004°38'1 2.7
2017-Oct-14 07:00N 48°17' W 004°37'1 2.9
2017-Oct-14 06:30N 48°17' W 004°35'0 0.0
2017-Oct-14 06:00N 48°17' W 004°35'0 0.0
2017-Oct-14 05:30N 48°17' W 004°35'0 0.0
2017-Oct-13 15:06N 48°17' W 004°35'0 0.1
2017-Oct-13 15:00N 48°17' W 004°35'1 2.7
2017-Oct-13 14:30N 48°17' W 004°37'3 5.8
2017-Oct-13 14:00N 48°18' W 004°41'3 5.7
2017-Oct-13 13:30N 48°19' W 004°45'1 1.7
2017-Oct-13 13:00N 48°19' W 004°44'3 5.7
2017-Oct-13 12:30N 48°19' W 004°40'  

Dump ship's entire track history